Time;durP1;ratioP1;P1;durP2;ratioP2;P2;SDS_P1;SDS_P2;PMS_P1;PMS_P2;Temp;Humidity;BMP_temperature;BMP_pressure;BME280_temperature;BME280_humidity;BME280_pressure;Samples;Min_cycle;Max_cycle;Signal;HPM_P1;HPM_P2
2021/03/18 00:01:30;;;;;;;4.80;1.67;;;-3275.20;90.40;;;;;;5037225;28;20377;-60
2021/03/18 00:03:58;;;;;;;5.20;2.10;;;-3275.30;90.20;;;;;;5040907;28;20105;-59
2021/03/18 00:06:26;;;;;;;4.95;1.65;;;-3275.30;90.10;;;;;;5040677;28;20099;-59
2021/03/18 00:08:54;;;;;;;5.75;1.65;;;-3275.30;90.00;;;;;;5040960;28;20359;-58
2021/03/18 00:11:23;;;;;;;4.63;1.88;;;-3275.20;90.20;;;;;;5039190;28;20067;-59
2021/03/18 00:13:54;;;;;;;4.13;1.90;;;-3275.10;90.20;;;;;;5037875;28;20060;-59
2021/03/18 00:16:21;;;;;;;5.13;2.03;;;-3275.10;90.50;;;;;;5037554;28;20603;-59
2021/03/18 00:18:51;;;;;;;2.38;1.55;;;-3275.10;90.60;;;;;;5038075;28;20091;-59
2021/03/18 00:21:19;;;;;;;2.15;1.20;;;-3275.10;90.60;;;;;;5036649;28;20297;-59
2021/03/18 00:23:47;;;;;;;9.43;1.75;;;-3275.10;90.80;;;;;;5039570;28;20053;-60
2021/03/18 00:26:17;;;;;;;4.63;1.77;;;-3275.00;90.80;;;;;;5036292;28;20037;-59
2021/03/18 00:28:45;;;;;;;6.72;1.88;;;-3275.00;91.10;;;;;;5039550;28;20107;-59
2021/03/18 00:31:13;;;;;;;1.38;0.73;;;-3275.00;91.00;;;;;;5039951;28;20048;-60
2021/03/18 00:33:41;;;;;;;3.55;1.17;;;-3275.00;91.10;;;;;;5054470;28;20061;-60
2021/03/18 00:36:08;;;;;;;4.80;2.05;;;-3274.90;91.10;;;;;;5040264;28;20064;-60
2021/03/18 00:38:36;;;;;;;2.78;1.33;;;-3275.00;91.10;;;;;;5036809;28;20057;-59
2021/03/18 00:41:07;;;;;;;5.38;1.67;;;-3274.90;90.80;;;;;;5039629;28;20095;-59
2021/03/18 00:43:34;;;;;;;;;;;-3274.90;91.00;;;;;;5039455;28;20061;-60
2021/03/18 00:46:09;;;;;;;2.65;1.50;;;-3274.90;91.00;;;;;;5039527;28;20124;-59
2021/03/18 00:48:46;;;;;;;1.95;0.90;;;-3275.00;90.80;;;;;;5031619;28;20344;-60
2021/03/18 00:51:16;;;;;;;3.95;1.70;;;-3275.00;90.80;;;;;;5041484;28;20045;-59
2021/03/18 00:53:45;;;;;;;1.80;1.13;;;-3274.90;90.80;;;;;;5041639;28;20336;-59
2021/03/18 00:56:16;;;;;;;5.88;1.08;;;-3274.80;90.90;;;;;;5037173;28;20364;-58
2021/03/18 00:58:49;;;;;;;2.10;1.20;;;-3274.80;91.10;;;;;;5041588;28;20154;-59
2021/03/18 01:01:24;;;;;;;4.72;1.58;;;-3274.80;91.20;;;;;;5049641;28;20425;-59
2021/03/18 01:03:54;;;;;;;4.45;1.38;;;-3274.80;91.40;;;;;;5041156;28;20324;-59
2021/03/18 01:06:24;;;;;;;4.22;2.00;;;-3274.80;91.20;;;;;;5042065;28;20041;-60
2021/03/18 01:08:54;;;;;;;5.15;2.17;;;-3274.70;91.40;;;;;;5041049;28;20061;-59
2021/03/18 01:11:24;;;;;;;2.33;1.10;;;-3274.70;91.40;;;;;;5039633;28;20053;-59
2021/03/18 01:13:54;;;;;;;5.22;1.88;;;-3274.70;91.40;;;;;;5037929;28;20041;-59
2021/03/18 01:16:22;;;;;;;3.92;1.33;;;-3274.80;91.30;;;;;;5040131;28;20045;-59
2021/03/18 01:18:53;;;;;;;4.95;1.92;;;-3274.80;91.10;;;;;;5037497;28;20041;-59
2021/03/18 01:21:24;;;;;;;3.78;1.70;;;-3274.60;91.20;;;;;;5039764;28;21009;-59
2021/03/18 01:23:54;;;;;;;5.38;2.42;;;-3274.60;91.30;;;;;;5042632;28;20057;-59
2021/03/18 01:26:25;;;;;;;5.03;2.10;;;-3274.60;91.40;;;;;;5039089;28;20924;-59
2021/03/18 01:29:00;;;;;;;7.30;2.50;;;-3274.60;91.70;;;;;;5040309;28;20049;-59
2021/03/18 01:31:31;;;;;;;10.65;3.08;;;-3274.60;91.50;;;;;;5034210;28;20111;-59
2021/03/18 01:33:58;;;;;;;4.18;2.35;;;-3274.50;91.60;;;;;;5041216;28;20345;-58
2021/03/18 01:36:31;;;;;;;6.03;1.80;;;-3274.50;91.70;;;;;;5040974;28;20069;-58
2021/03/18 01:38:59;;;;;;;4.65;1.92;;;-3274.50;91.80;;;;;;5041403;28;20214;-58
2021/03/18 01:41:28;;;;;;;9.77;2.38;;;-3274.40;91.80;;;;;;5041457;28;20048;-59
2021/03/18 01:43:56;;;;;;;4.43;1.42;;;-3274.50;92.00;;;;;;5041293;28;20049;-59
2021/03/18 01:46:28;;;;;;;6.95;3.65;;;-3274.40;91.80;;;;;;5037533;28;20128;-59
2021/03/18 01:48:56;;;;;;;4.85;2.30;;;-3274.40;92.00;;;;;;5040769;28;20045;-59
2021/03/18 01:51:23;;;;;;;4.05;1.70;;;-3274.40;91.60;;;;;;5038493;28;20049;-59
2021/03/18 01:53:50;;;;;;;2.83;1.55;;;-3274.40;91.80;;;;;;5038814;28;20329;-58
2021/03/18 01:56:18;;;;;;;3.30;1.98;;;-3274.40;91.60;;;;;;5037721;28;20521;-59
2021/03/18 01:58:47;;;;;;;5.03;1.35;;;-3274.30;91.90;;;;;;5039389;28;20064;-59
2021/03/18 02:01:18;;;;;;;8.75;1.83;;;-3274.30;92.10;;;;;;5033961;28;20091;-59
2021/03/18 02:03:46;;;;;;;5.47;1.67;;;-3274.30;92.10;;;;;;5037592;28;20049;-59
2021/03/18 02:06:13;;;;;;;3.13;1.60;;;-3274.30;91.70;;;;;;5038973;28;20134;-59
2021/03/18 02:08:40;;;;;;;2.33;1.33;;;-3274.20;92.00;;;;;;5040499;28;20068;-60
2021/03/18 02:11:08;;;;;;;4.95;1.40;;;-3274.20;92.10;;;;;;5039329;28;20275;-59
2021/03/18 02:13:35;;;;;;;3.33;1.25;;;-3274.20;92.30;;;;;;5035396;28;20240;-59
2021/03/18 02:16:06;;;;;;;4.10;1.58;;;-3274.30;92.20;;;;;;5035664;28;20108;-59
2021/03/18 02:18:43;;;;;;;3.92;1.50;;;-3274.20;92.00;;;;;;5034490;28;20135;-59
2021/03/18 02:21:57;;;;;;;4.28;1.15;;;-3274.20;92.10;;;;;;5036305;28;20328;-59
2021/03/18 02:24:56;;;;;;;1.58;0.90;;;-3274.20;92.10;;;;;;5015030;28;23815;-59
2021/03/18 02:27:58;;;;;;;1.48;1.20;;;-3274.20;92.30;;;;;;5035926;28;20116;-60
2021/03/18 02:31:04;;;;;;;1.75;0.82;;;-3274.20;92.30;;;;;;5001571;28;20221;-59
2021/03/18 02:34:02;;;;;;;2.10;1.30;;;-3274.20;92.30;;;;;;5031943;28;20239;-58
2021/03/18 02:36:40;;;;;;;3.80;2.30;;;-3274.20;92.40;;;;;;5032031;28;20524;-59
2021/03/18 02:39:12;;;;;;;7.35;1.38;;;-3274.20;92.20;;;;;;5033482;28;20280;-58
2021/03/18 02:41:44;;;;;;;1.90;1.10;;;-3274.10;92.20;;;;;;5032492;28;20056;-60
2021/03/18 02:44:16;;;;;;;1.40;0.90;;;-3274.10;92.30;;;;;;5033456;28;20063;-58
2021/03/18 02:46:44;;;;;;;4.72;1.02;;;-3274.10;92.40;;;;;;5033264;28;20064;-58
2021/03/18 02:49:13;;;;;;;4.07;0.90;;;-3274.10;92.50;;;;;;5034557;28;20048;-58
2021/03/18 02:51:43;;;;;;;1.67;1.33;;;-3274.00;91.90;;;;;;5033382;28;20052;-58
2021/03/18 02:54:19;;;;;;;2.00;1.10;;;-3274.00;92.10;;;;;;5037434;28;20042;-59
2021/03/18 02:56:51;;;;;;;1.15;0.73;;;-3274.10;92.10;;;;;;5038460;28;20065;-59
2021/03/18 02:59:24;;;;;;;1.30;0.90;;;-3274.10;91.90;;;;;;5038825;28;20044;-59
2021/03/18 03:01:56;;;;;;;4.88;1.08;;;-3274.00;92.10;;;;;;5052008;28;20049;-58
2021/03/18 03:04:24;;;;;;;3.35;0.77;;;-3274.00;92.30;;;;;;5040613;28;20056;-59
2021/03/18 03:06:53;;;;;;;1.75;0.68;;;-3274.00;92.20;;;;;;5038108;28;20049;-59
2021/03/18 03:09:22;;;;;;;0.82;0.55;;;-3274.00;92.20;;;;;;5030394;28;20058;-59
2021/03/18 03:11:54;;;;;;;1.80;1.02;;;-3273.90;92.20;;;;;;5036105;28;20057;-59
2021/03/18 03:14:22;;;;;;;2.85;1.30;;;-3274.00;92.40;;;;;;5039316;28;20596;-59
2021/03/18 03:16:49;;;;;;;3.17;1.15;;;-3273.90;92.20;;;;;;5041860;28;20057;-59
2021/03/18 03:19:20;;;;;;;1.38;0.93;;;-3273.90;92.20;;;;;;5040661;28;20130;-59
2021/03/18 03:21:49;;;;;;;2.25;1.42;;;-3274.00;92.40;;;;;;5042426;28;20049;-59
2021/03/18 03:24:18;;;;;;;2.40;1.00;;;-3273.90;92.10;;;;;;5041052;28;20974;-59
2021/03/18 03:26:46;;;;;;;1.05;0.65;;;-3273.90;92.20;;;;;;5042499;28;20049;-59
2021/03/18 03:29:14;;;;;;;2.85;1.00;;;-3274.00;92.20;;;;;;5042727;28;20049;-59
2021/03/18 03:31:42;;;;;;;2.28;1.05;;;-3274.10;91.90;;;;;;5043137;28;20057;-59
2021/03/18 03:34:10;;;;;;;2.17;1.13;;;-3274.10;91.80;;;;;;5043686;28;20051;-59
2021/03/18 03:36:38;;;;;;;1.45;0.95;;;-3274.00;91.80;;;;;;5043130;28;20061;-58
2021/03/18 03:39:06;;;;;;;5.85;1.80;;;-3274.00;91.90;;;;;;5038368;28;20333;-59
2021/03/18 03:41:34;;;;;;;6.63;1.77;;;-3273.90;92.00;;;;;;5043397;28;20111;-59
2021/03/18 03:44:02;;;;;;;1.40;0.98;;;-3273.90;92.00;;;;;;5038913;28;20053;-58
2021/03/18 03:46:30;;;;;;;2.42;1.67;;;-3273.80;92.00;;;;;;5042163;28;20053;-60
2021/03/18 03:48:57;;;;;;;2.58;1.08;;;-3273.80;92.30;;;;;;5041836;28;20052;-59
2021/03/18 03:51:34;;;;;;;6.07;1.55;;;-3273.80;92.40;;;;;;5041125;28;20049;-60
2021/03/18 03:54:04;;;;;;;3.03;1.23;;;-3273.80;92.30;;;;;;5042673;28;20400;-59
2021/03/18 03:56:39;;;;;;;3.65;1.67;;;-3273.80;92.40;;;;;;5040667;28;20061;-59
2021/03/18 03:59:14;;;;;;;3.75;1.77;;;-3273.80;92.30;;;;;;5036071;28;20045;-59
2021/03/18 04:01:45;;;;;;;2.05;1.10;;;-3273.80;92.20;;;;;;5029452;28;20123;-59
2021/03/18 04:04:13;;;;;;;;;;;-3273.70;92.20;;;;;;5037798;28;20045;-59
2021/03/18 04:06:42;;;;;;;2.75;1.23;;;-3273.70;92.30;;;;;;5038760;28;20203;-59
2021/03/18 04:09:17;;;;;;;2.70;1.70;;;-3273.60;92.30;;;;;;5037353;28;20095;-60
2021/03/18 04:11:52;;;;;;;3.38;2.45;;;-3273.80;92.70;;;;;;5040955;28;20120;-60
2021/03/18 04:14:23;;;;;;;2.83;1.42;;;-3273.90;92.60;;;;;;5028882;28;20535;-60
2021/03/18 04:16:52;;;;;;;8.95;1.40;;;-3273.90;92.50;;;;;;5049186;28;20268;-59
2021/03/18 04:19:21;;;;;;;3.53;1.15;;;-3273.90;92.20;;;;;;5039757;28;20955;-59
2021/03/18 04:21:51;;;;;;;4.10;1.73;;;-3273.90;92.10;;;;;;5035485;28;20065;-59
2021/03/18 04:24:20;;;;;;;5.55;1.83;;;-3273.90;92.00;;;;;;5035442;28;21060;-58
2021/03/18 04:26:49;;;;;;;6.40;1.20;;;-3274.00;91.70;;;;;;5038488;28;20394;-58
2021/03/18 04:29:17;;;;;;;3.60;1.38;;;-3274.10;91.40;;;;;;5037643;28;20504;-58
2021/03/18 04:31:45;;;;;;;2.97;1.55;;;-3274.10;91.30;;;;;;5039392;28;20049;-59
2021/03/18 04:34:16;;;;;;;2.63;1.58;;;-3274.10;91.30;;;;;;5037949;28;20133;-58
2021/03/18 04:36:44;;;;;;;3.67;1.33;;;-3274.20;91.40;;;;;;5037779;28;20340;-58
2021/03/18 04:39:12;;;;;;;6.78;1.65;;;-3274.10;91.60;;;;;;5038982;28;20363;-58
2021/03/18 04:41:40;;;;;;;3.45;2.15;;;-3274.20;91.80;;;;;;5038184;28;20045;-60
2021/03/18 04:44:08;;;;;;;4.10;2.40;;;-3274.20;91.60;;;;;;5052806;28;20049;-58
2021/03/18 04:46:37;;;;;;;12.38;1.83;;;-3274.20;91.60;;;;;;5038319;28;20067;-59
2021/03/18 04:49:06;;;;;;;6.00;2.05;;;-3274.30;91.70;;;;;;5039662;28;20057;-60
2021/03/18 04:51:33;;;;;;;4.57;1.58;;;-3274.30;91.50;;;;;;5038459;28;20061;-59
2021/03/18 04:54:04;;;;;;;4.85;2.15;;;-3274.40;91.50;;;;;;5034691;28;20069;-58
2021/03/18 04:56:33;;;;;;;3.38;1.90;;;-3274.40;91.40;;;;;;5038030;28;20057;-58
2021/03/18 04:59:02;;;;;;;3.75;1.75;;;-3274.50;91.40;;;;;;5036416;28;20099;-59
2021/03/18 05:01:31;;;;;;;5.75;1.95;;;-3274.60;91.30;;;;;;5035544;28;20053;-59
2021/03/18 05:04:00;;;;;;;2.42;1.30;;;-3274.60;91.20;;;;;;5037771;28;20348;-59
2021/03/18 05:06:30;;;;;;;4.82;2.20;;;-3274.50;91.20;;;;;;5051807;28;20345;-59
2021/03/18 05:09:01;;;;;;;2.45;1.35;;;-3274.40;91.00;;;;;;5035751;28;20070;-59
2021/03/18 05:11:30;;;;;;;4.72;2.35;;;-3274.60;91.40;;;;;;5036854;28;20087;-59
2021/03/18 05:13:58;;;;;;;7.38;2.55;;;-3274.60;90.80;;;;;;5037103;28;20422;-58
2021/03/18 05:16:26;;;;;;;4.45;2.35;;;-3274.60;90.80;;;;;;5041943;28;20098;-58
2021/03/18 05:18:54;;;;;;;5.45;2.30;;;-3274.60;90.80;;;;;;5037072;28;20218;-59
2021/03/18 05:21:22;;;;;;;7.07;1.75;;;-3274.60;90.80;;;;;;5038509;28;20045;-58
2021/03/18 05:23:49;;;;;;;5.55;2.42;;;-3274.60;90.80;;;;;;5037064;28;20367;-58
2021/03/18 05:26:16;;;;;;;9.02;2.90;;;-3274.50;90.90;;;;;;5035118;28;20402;-59
2021/03/18 05:28:47;;;;;;;2.22;1.45;;;-3274.50;91.20;;;;;;5035046;28;20337;-58
2021/03/18 05:31:14;;;;;;;5.25;1.85;;;-3274.60;91.00;;;;;;5033765;28;20041;-59
2021/03/18 05:33:41;;;;;;;6.88;2.53;;;-3274.50;90.90;;;;;;5033698;28;20053;-59
2021/03/18 05:36:10;;;;;;;5.85;3.42;;;-3274.50;91.30;;;;;;5033941;28;20419;-58
2021/03/18 05:38:37;;;;;;;9.93;3.38;;;-3274.70;90.90;;;;;;5039259;28;20050;-58
2021/03/18 05:41:07;;;;;;;5.25;2.33;;;-3274.70;90.30;;;;;;5056223;28;20348;-58
2021/03/18 05:43:35;;;;;;;5.32;2.67;;;-3274.70;90.10;;;;;;5036006;28;20061;-59
2021/03/18 05:46:03;;;;;;;3.88;1.98;;;-3274.70;90.20;;;;;;5038528;28;20057;-59
2021/03/18 05:48:31;;;;;;;10.48;2.85;;;-3274.70;90.50;;;;;;5035634;28;20072;-59
2021/03/18 05:50:59;;;;;;;4.95;2.58;;;-3274.60;90.40;;;;;;5034590;28;20052;-59
2021/03/18 05:53:28;;;;;;;4.53;2.25;;;-3274.50;90.40;;;;;;5034608;28;20067;-59
2021/03/18 05:55:58;;;;;;;7.47;2.88;;;-3274.60;91.00;;;;;;5039173;28;20214;-60
2021/03/18 05:58:26;;;;;;;5.95;2.63;;;-3274.60;90.60;;;;;;5035496;28;20083;-59
2021/03/18 06:00:54;;;;;;;6.90;2.60;;;-3274.80;90.20;;;;;;5030032;28;20045;-58
2021/03/18 06:03:21;;;;;;;4.60;2.20;;;-3274.80;90.00;;;;;;5032017;28;20056;-59
2021/03/18 06:05:50;;;;;;;4.03;2.05;;;-3274.90;89.70;;;;;;5038750;28;20061;-59
2021/03/18 06:08:17;;;;;;;5.72;2.65;;;-3274.80;89.60;;;;;;5039054;28;20081;-58
2021/03/18 06:10:45;;;;;;;6.88;2.47;;;-3274.80;89.80;;;;;;5038815;28;20041;-58
2021/03/18 06:13:13;;;;;;;9.30;2.42;;;-3274.70;90.00;;;;;;5036727;28;20045;-59
2021/03/18 06:15:40;;;;;;;3.10;1.83;;;-3274.60;90.30;;;;;;5036957;28;20083;-59
2021/03/18 06:18:11;;;;;;;2.80;1.45;;;-3274.70;90.60;;;;;;5035208;28;20053;-59
2021/03/18 06:20:49;;;;;;;3.55;1.95;;;-3274.80;90.20;;;;;;5034477;28;20210;-59
2021/03/18 06:23:16;;;;;;;9.10;2.67;;;-3274.90;89.90;;;;;;5036033;28;20236;-59
2021/03/18 06:25:43;;;;;;;6.95;2.97;;;-3274.90;89.90;;;;;;5036892;28;20049;-59
2021/03/18 06:28:18;;;;;;;5.15;2.13;;;-3275.00;89.80;;;;;;5039165;28;20044;-58
2021/03/18 06:30:57;;;;;;;7.50;2.15;;;-3274.90;89.90;;;;;;5039088;28;20283;-59
2021/03/18 06:33:26;;;;;;;9.00;3.80;;;-3274.90;90.40;;;;;;5038049;28;20506;-58
2021/03/18 06:35:54;;;;;;;5.30;1.98;;;-3274.90;90.40;;;;;;5037598;28;20065;-58
2021/03/18 06:38:29;;;;;;;5.45;2.35;;;-3275.00;90.80;;;;;;5036402;28;20061;-59
2021/03/18 06:40:58;;;;;;;5.13;2.75;;;-3275.10;90.20;;;;;;5038005;28;20303;-59
2021/03/18 06:43:43;;;;;;;7.38;2.13;;;-3275.20;90.00;;;;;;5036680;28;20135;-59
2021/03/18 06:46:20;;;;;;;4.72;2.53;;;-3275.30;89.80;;;;;;5036888;28;20247;-59
2021/03/18 06:48:48;;;;;;;5.20;2.28;;;-3275.30;89.70;;;;;;5038894;28;20060;-58
2021/03/18 06:51:20;;;;;;;3.63;1.70;;;-3275.40;89.60;;;;;;5041048;28;20042;-59
2021/03/18 06:53:47;;;;;;;5.75;2.75;;;-3275.30;89.60;;;;;;5041457;28;20228;-59
2021/03/18 06:56:26;;;;;;;2.88;1.88;;;-3275.50;89.50;;;;;;5036992;28;20120;-59
2021/03/18 06:58:56;;;;;;;17.00;3.08;;;-3275.60;89.30;;;;;;5041030;28;20053;-59
2021/03/18 07:01:24;;;;;;;4.15;1.98;;;-3275.60;89.30;;;;;;5037943;28;20065;-60
2021/03/18 07:04:00;;;;;;;5.00;2.60;;;-3275.80;89.10;;;;;;5036730;28;20198;-58
2021/03/18 07:06:30;;;;;;;6.82;2.40;;;-3275.90;88.70;;;;;;5041759;28;20099;-59
2021/03/18 07:09:09;;;;;;;4.45;2.22;;;-3276.00;88.70;;;;;;5038377;28;20064;-59
2021/03/18 07:11:43;;;;;;;8.30;3.47;;;-3276.30;87.90;;;;;;5036448;28;20041;-59
2021/03/18 07:14:12;;;;;;;5.93;3.17;;;-3276.30;87.60;;;;;;5036639;28;20049;-60
2021/03/18 07:16:45;;;;;;;6.68;2.58;;;-3276.50;87.40;;;;;;5036209;28;20049;-60
2021/03/18 07:19:23;;;;;;;9.52;3.78;;;-3276.60;86.50;;;;;;5037661;28;20133;-59
2021/03/18 07:21:54;;;;;;;4.38;2.38;;;0.00;86.00;;;;;;5035691;28;20049;-59
2021/03/18 07:24:30;;;;;;;4.75;2.35;;;0.00;85.60;;;;;;5038583;28;20263;-59
2021/03/18 07:26:59;;;;;;;8.05;3.10;;;0.20;85.40;;;;;;5037260;28;20057;-59
2021/03/18 07:29:31;;;;;;;7.22;2.70;;;0.10;84.70;;;;;;5039498;28;20061;-59
2021/03/18 07:31:59;;;;;;;5.78;3.10;;;0.20;84.80;;;;;;5053540;28;20347;-60
2021/03/18 07:34:26;;;;;;;6.35;2.45;;;0.30;84.20;;;;;;5038353;28;20064;-60
2021/03/18 07:36:57;;;;;;;9.32;2.55;;;0.40;83.20;;;;;;5037946;28;20179;-60
2021/03/18 07:39:24;;;;;;;8.60;2.53;;;0.50;82.80;;;;;;5036256;28;20041;-60
2021/03/18 07:41:53;;;;;;;4.63;1.83;;;0.70;83.50;;;;;;5035772;28;20099;-59
2021/03/18 07:44:21;;;;;;;4.90;2.10;;;0.90;82.80;;;;;;5018739;28;20049;-60
2021/03/18 07:46:51;;;;;;;7.55;2.40;;;1.20;82.20;;;;;;5038646;28;20037;-59
2021/03/18 07:49:20;;;;;;;7.18;2.33;;;1.30;81.40;;;;;;5039132;28;20454;-59
2021/03/18 07:51:55;;;;;;;7.28;2.33;;;1.60;80.70;;;;;;5039040;28;20065;-59
2021/03/18 07:54:23;;;;;;;6.20;2.25;;;1.50;80.20;;;;;;5038900;28;20289;-59
2021/03/18 07:56:53;;;;;;;7.72;2.65;;;1.80;80.80;;;;;;5039712;28;20685;-59
2021/03/18 07:59:24;;;;;;;8.23;3.13;;;2.00;80.00;;;;;;5034039;28;21541;-60
2021/03/18 08:01:52;;;;;;;6.88;3.80;;;2.20;79.00;;;;;;5033476;28;20300;-59
2021/03/18 08:04:19;;;;;;;4.22;2.20;;;2.40;78.50;;;;;;5036769;28;21162;-60
2021/03/18 08:06:55;;;;;;;5.03;2.95;;;2.70;77.30;;;;;;5039309;28;20059;-59
2021/03/18 08:09:50;;;;;;;6.47;3.45;;;2.80;76.40;;;;;;5042106;28;20236;-58
2021/03/18 08:12:45;;;;;;;6.07;2.95;;;2.90;75.90;;;;;;5038927;28;20273;-59
2021/03/18 08:15:49;;;;;;;8.43;2.60;;;3.00;75.40;;;;;;5039746;28;20053;-59
2021/03/18 08:18:37;;;;;;;7.03;2.33;;;3.20;75.00;;;;;;5036762;28;20323;-59
2021/03/18 08:21:11;;;;;;;7.68;2.90;;;3.00;75.70;;;;;;5040148;28;20050;-59
2021/03/18 08:23:54;;;;;;;6.45;2.38;;;3.20;74.80;;;;;;5040936;28;20083;-60
2021/03/18 08:26:38;;;;;;;5.47;2.40;;;3.10;74.40;;;;;;5036150;28;20364;-59
2021/03/18 08:29:08;;;;;;;4.60;2.72;;;3.00;75.20;;;;;;5036086;28;20057;-59
2021/03/18 08:31:47;;;;;;;8.30;3.20;;;2.90;75.50;;;;;;5038066;28;20133;-60
2021/03/18 08:34:17;;;;;;;5.20;1.63;;;2.80;75.40;;;;;;5037138;28;20065;-60
2021/03/18 08:36:55;;;;;;;5.88;2.22;;;2.70;75.50;;;;;;5037094;28;20045;-59
2021/03/18 08:39:47;;;;;;;8.25;2.92;;;2.70;75.90;;;;;;5036480;28;20510;-59
2021/03/18 08:42:42;;;;;;;5.72;2.10;;;2.70;75.10;;;;;;5033623;28;20260;-60
2021/03/18 08:45:34;;;;;;;3.63;1.75;;;2.80;75.00;;;;;;5038191;28;20060;-59
2021/03/18 08:48:18;;;;;;;2.67;1.77;;;2.90;74.70;;;;;;5037740;28;20046;-60
2021/03/18 08:51:05;;;;;;;4.60;2.25;;;3.00;74.30;;;;;;5037051;28;20053;-60
2021/03/18 08:53:43;;;;;;;5.50;2.47;;;3.00;74.50;;;;;;5038886;28;20349;-59
2021/03/18 08:56:10;;;;;;;5.85;1.80;;;3.10;73.30;;;;;;5039417;28;20092;-59
2021/03/18 08:58:53;;;;;;;4.05;1.80;;;3.30;73.50;;;;;;5040903;28;20059;-60
2021/03/18 09:01:22;;;;;;;8.07;1.95;;;3.10;72.80;;;;;;5034352;28;20068;-60
2021/03/18 09:03:59;;;;;;;5.55;1.80;;;3.20;72.70;;;;;;5035635;28;20060;-60
2021/03/18 09:06:31;;;;;;;8.57;2.13;;;3.20;72.50;;;;;;5040479;28;20608;-59
2021/03/18 09:09:06;;;;;;;7.45;3.25;;;3.30;72.70;;;;;;5033795;28;20049;-60
2021/03/18 09:11:37;;;;;;;4.85;2.15;;;3.40;71.60;;;;;;5037294;28;20061;-61
2021/03/18 09:14:04;;;;;;;6.55;2.47;;;3.40;71.70;;;;;;5035185;28;20052;-60
2021/03/18 09:16:31;;;;;;;5.25;2.70;;;3.60;71.30;;;;;;5036895;28;20116;-60
2021/03/18 09:19:01;;;;;;;6.50;2.70;;;3.80;71.20;;;;;;5037118;28;20157;-60
2021/03/18 09:21:43;;;;;;;5.25;2.70;;;3.80;70.60;;;;;;5034006;28;20053;-59
2021/03/18 09:24:12;;;;;;;7.18;3.17;;;4.00;71.00;;;;;;5037014;28;20395;-60
2021/03/18 09:26:43;;;;;;;9.27;3.67;;;4.40;69.70;;;;;;5037741;28;20350;-60
2021/03/18 09:29:10;;;;;;;9.13;2.92;;;4.40;68.50;;;;;;5036724;28;20061;-59
2021/03/18 09:31:37;;;;;;;7.07;2.80;;;4.80;68.60;;;;;;5034311;28;20064;-60
2021/03/18 09:34:06;;;;;;;5.60;3.20;;;5.30;67.00;;;;;;5036890;28;20577;-59
2021/03/18 09:36:33;;;;;;;8.40;4.00;;;5.50;67.20;;;;;;5034195;28;20096;-59
2021/03/18 09:39:06;;;;;;;7.53;3.40;;;6.00;64.90;;;;;;5034324;28;20113;-60
2021/03/18 09:41:36;;;;;;;9.38;4.03;;;6.10;63.30;;;;;;5034326;28;20279;-60
2021/03/18 09:44:12;;;;;;;8.05;3.63;;;6.60;63.40;;;;;;5031721;28;20069;-59
2021/03/18 09:46:41;;;;;;;6.70;3.35;;;7.20;60.00;;;;;;5038849;28;20660;-59
2021/03/18 09:49:08;;;;;;;6.93;3.70;;;8.20;57.90;;;;;;5036971;28;20108;-60
2021/03/18 09:51:43;;;;;;;8.00;3.80;;;9.10;55.70;;;;;;5035839;28;20055;-59
2021/03/18 09:54:14;;;;;;;14.80;9.10;;;10.00;52.50;;;;;;5033508;28;20053;-60
2021/03/18 09:56:45;;;;;;;8.23;4.07;;;10.70;50.10;;;;;;5037939;28;20108;-59
2021/03/18 09:59:13;;;;;;;12.20;4.53;;;11.60;47.60;;;;;;5039952;28;20064;-60
2021/03/18 10:01:40;;;;;;;8.23;4.32;;;12.10;46.10;;;;;;5033003;28;20345;-60
2021/03/18 10:04:11;;;;;;;12.27;5.90;;;12.50;43.40;;;;;;5039794;28;20049;-60
2021/03/18 10:06:39;;;;;;;;;;;13.20;41.30;;;;;;5039425;28;20273;-59
2021/03/18 10:09:23;;;;;;;8.10;3.13;;;13.60;42.10;;;;;;5038331;28;19925;-59
2021/03/18 10:11:57;;;;;;;6.47;3.25;;;13.30;40.00;;;;;;5039400;28;20049;-59
2021/03/18 10:14:30;;;;;;;9.25;4.03;;;12.20;42.50;;;;;;5036248;28;20600;-60
2021/03/18 10:17:06;;;;;;;19.20;9.95;;;12.40;42.20;;;;;;5035913;28;20042;-60
2021/03/18 10:19:37;;;;;;;10.07;4.72;;;12.60;43.50;;;;;;5037675;28;20108;-60
2021/03/18 10:22:12;;;;;;;9.68;3.45;;;13.30;41.60;;;;;;5033622;28;20246;-60
2021/03/18 10:24:41;;;;;;;7.45;3.42;;;12.90;41.80;;;;;;5036648;28;20403;-59
2021/03/18 10:27:13;;;;;;;6.22;3.47;;;13.10;42.30;;;;;;5035555;28;21599;-61
2021/03/18 10:29:41;;;;;;;11.82;4.20;;;13.00;40.50;;;;;;5036946;28;20444;-60
2021/03/18 10:32:10;;;;;;;7.88;3.67;;;12.00;42.70;;;;;;5036250;28;20041;-59
2021/03/18 10:34:39;;;;;;;7.20;3.47;;;11.30;43.80;;;;;;5036447;28;20061;-60
2021/03/18 10:37:25;;;;;;;7.13;3.17;;;11.60;43.10;;;;;;5040791;28;20082;-59
2021/03/18 10:40:09;;;;;;;6.15;3.10;;;12.70;42.70;;;;;;5034920;28;20120;-59
2021/03/18 10:42:46;;;;;;;7.25;3.60;;;13.10;39.60;;;;;;5032420;28;20040;-60
2021/03/18 10:45:15;;;;;;;6.00;3.08;;;12.50;40.00;;;;;;5046519;28;20056;-60
2021/03/18 10:47:44;;;;;;;6.57;2.83;;;12.60;40.50;;;;;;5039083;28;20345;-60
2021/03/18 10:50:13;;;;;;;10.18;4.88;;;13.40;39.90;;;;;;5034849;28;20049;-59
2021/03/18 10:52:40;;;;;;;10.88;6.72;;;13.90;39.40;;;;;;5034350;28;20317;-62
2021/03/18 10:55:10;;;;;;;12.18;6.97;;;13.80;39.80;;;;;;5034539;28;20049;-60
2021/03/18 10:57:37;;;;;;;25.50;15.77;;;13.40;40.00;;;;;;5035350;28;20338;-60
2021/03/18 11:00:08;;;;;;;13.02;7.07;;;13.40;40.20;;;;;;5033017;28;20425;-60
2021/03/18 11:02:37;;;;;;;12.60;8.05;;;12.60;40.90;;;;;;5035797;28;20084;-60
2021/03/18 11:05:06;;;;;;;15.05;8.90;;;13.10;40.20;;;;;;5035420;28;20046;-60
2021/03/18 11:07:33;;;;;;;5.80;2.90;;;13.40;38.70;;;;;;5033932;28;20121;-60
2021/03/18 11:10:11;;;;;;;12.00;4.93;;;12.80;39.50;;;;;;5035662;28;20227;-60
2021/03/18 11:12:41;;;;;;;45.60;18.65;;;12.30;41.80;;;;;;5036193;28;20045;-60
2021/03/18 11:15:11;;;;;;;10.00;4.63;;;12.00;42.00;;;;;;5034498;28;20038;-60
2021/03/18 11:17:38;;;;;;;5.75;2.75;;;11.10;43.00;;;;;;5036040;28;20053;-60
2021/03/18 11:20:12;;;;;;;13.23;4.95;;;10.50;45.40;;;;;;5034277;28;20061;-60
2021/03/18 11:22:41;;;;;;;17.08;7.95;;;10.20;47.60;;;;;;5033512;28;20450;-60
2021/03/18 11:25:11;;;;;;;14.02;6.93;;;10.10;47.70;;;;;;5033673;28;20111;-59
2021/03/18 11:27:38;;;;;;;19.20;8.88;;;9.70;49.60;;;;;;5034513;28;20160;-60
2021/03/18 11:30:12;;;;;;;8.20;3.58;;;9.20;51.60;;;;;;5032618;28;20348;-59
2021/03/18 11:32:39;;;;;;;8.73;3.67;;;8.70;53.50;;;;;;5036107;28;20065;-59
2021/03/18 11:35:18;;;;;;;4.70;2.80;;;8.40;55.60;;;;;;5036664;28;20524;-60
2021/03/18 11:37:44;;;;;;;5.60;2.40;;;8.10;56.70;;;;;;5042593;28;20057;-60
2021/03/18 11:40:13;;;;;;;12.35;5.13;;;8.00;56.90;;;;;;5040824;28;20045;-60
2021/03/18 11:42:40;;;;;;;12.77;5.68;;;7.80;57.80;;;;;;5040420;28;20063;-60
2021/03/18 11:45:08;;;;;;;11.93;3.97;;;7.50;58.80;;;;;;5042464;28;20116;-60
2021/03/18 11:47:35;;;;;;;6.82;3.50;;;7.30;60.00;;;;;;5040364;28;20061;-60
2021/03/18 11:50:04;;;;;;;5.50;2.33;;;7.00;62.40;;;;;;5039189;28;20053;-61
2021/03/18 11:52:33;;;;;;;8.93;2.95;;;6.90;67.50;;;;;;5040132;28;20057;-60
2021/03/18 11:55:00;;;;;;;6.95;2.58;;;7.00;66.10;;;;;;5040033;28;20050;-59
2021/03/18 11:57:30;;;;;;;4.07;2.20;;;7.10;68.20;;;;;;5042212;28;20060;-60
2021/03/18 11:59:57;;;;;;;6.43;2.67;;;7.30;67.40;;;;;;5040137;28;20052;-60
2021/03/18 12:02:24;;;;;;;4.97;2.30;;;7.50;66.10;;;;;;5040716;28;20104;-60
2021/03/18 12:04:51;;;;;;;8.52;3.22;;;7.70;64.10;;;;;;5043271;28;20060;-60
2021/03/18 12:07:18;;;;;;;6.45;2.75;;;7.90;63.30;;;;;;5044205;28;20052;-58
2021/03/18 12:09:45;;;;;;;4.05;1.77;;;9.00;60.10;;;;;;5040792;28;20374;-59
2021/03/18 12:12:12;;;;;;;6.15;2.42;;;10.60;54.00;;;;;;5054511;28;20092;-60
2021/03/18 12:14:42;;;;;;;6.35;2.55;;;13.10;46.50;;;;;;5041057;28;20099;-60
2021/03/18 12:17:11;;;;;;;5.25;2.00;;;15.00;41.10;;;;;;5044089;28;20053;-60
2021/03/18 12:19:38;;;;;;;3.30;2.00;;;15.10;40.10;;;;;;5037787;28;20047;-60
2021/03/18 12:22:05;;;;;;;9.48;2.28;;;14.70;40.10;;;;;;5034278;28;20052;-61
2021/03/18 12:24:32;;;;;;;5.13;2.03;;;16.10;37.20;;;;;;5051027;28;20045;-59
2021/03/18 12:26:59;;;;;;;5.57;2.63;;;16.80;38.30;;;;;;5032340;28;20045;-59
2021/03/18 12:29:30;;;;;;;7.68;2.88;;;18.80;35.10;;;;;;5038370;28;20041;-63
2021/03/18 12:32:00;;;;;;;5.45;2.22;;;19.70;31.70;;;;;;5031475;28;20052;-61
2021/03/18 12:34:30;;;;;;;6.70;2.33;;;18.10;32.20;;;;;;5032013;28;20406;-60
2021/03/18 12:36:57;;;;;;;4.78;1.85;;;17.80;32.10;;;;;;5035268;28;20110;-60
2021/03/18 12:39:24;;;;;;;6.50;3.03;;;17.70;34.40;;;;;;5032390;28;20061;-60
2021/03/18 12:41:51;;;;;;;6.90;2.45;;;17.40;34.60;;;;;;5032979;28;20052;-60
2021/03/18 12:44:18;;;;;;;4.28;2.08;;;15.60;36.60;;;;;;5029905;28;20409;-60
2021/03/18 12:46:45;;;;;;;7.22;2.70;;;13.30;40.40;;;;;;5035100;28;20057;-60
2021/03/18 12:49:14;;;;;;;4.03;2.20;;;12.90;42.40;;;;;;5031488;28;20065;-59
2021/03/18 12:51:41;;;;;;;4.55;2.00;;;11.70;44.00;;;;;;5031620;28;20124;-60
2021/03/18 12:54:08;;;;;;;5.20;2.67;;;11.20;45.50;;;;;;5031981;28;20339;-58